8TN1 weather

Parker Airport
Eads, Tennessee, United States

Public forecast

Using degrees Fahrenheit for public forecast. Weather courtesy of forecast.io.

Closest aviation weather report (METAR) to Parker Airport

Closest report is Olive Branch Airport, 15.3 nm (28.2 km) SSW. Retrieved 2019/10/17 11:35 UTC (0 seconds ago):

KOLV 171135Z AUTO 00000KT 10SM CLR 06/05 A3010 RMK A01

Closest aviation forecast (TAF) to Parker Airport

Closest forecast is Memphis International Airport, 19.5 nm (36.1 km) WSW. Retrieved 2019/10/17 06:22 UTC (5 hours ago):

TAF KMEM 170520Z 1706/1812 03003KT P6SM SKC FM171400 07003KT P6SM SKC FM171900 36004KT P6SM SKC FM180200 08003KT P6SM SKC